Eaton, Colorado
Current Conditions -  °F | °C
As of 10:35 AM on Monday 22 Dec 2014 (Local Time) from KGXY Reporting Station
Clear Clear  
Wind Chill: 36°   Ceiling: Unl
Heat Index: 45°   Visibility: 10mi
Dew Point: 21°   Wind: 24mph
Humidity: 39%   Direction: 350°N
Pressure: 29.69"   Gusts: 30mph
Location:  40.53°N, 104.71°W
Report Text: KGXY 221735Z AUTO 35021G26KT 10SM CLR 07/M06 A2969 RMK AO1
Loading
Personal Weather Stations






























Interactive Weather Map New forecast layout! Learn more

10-Day Weather Forecast

Advertisements
Track Severe Weather on mobile